Time;durP1;ratioP1;P1;durP2;ratioP2;P2;SDS_P1;SDS_P2;PMS_P1;PMS_P2;Temp;Humidity;BMP_temperature;BMP_pressure;BME280_temperature;BME280_humidity;BME280_pressure;Samples;Min_cycle;Max_cycle;Signal;HPM_P1;HPM_P2
2023/10/10 00:01:38;;;;;;;;;26.50;21.00;;;;;19.44;52.40;101583.25;5104002;27;46105;-63
2023/10/10 00:04:05;;;;;;;;;25.75;18.75;;;;;19.45;52.75;101578.78;5104956;27;45737;-64
2023/10/10 00:06:33;;;;;;;;;24.00;22.75;;;;;19.45;52.79;101587.59;5109648;27;46756;-64
2023/10/10 00:08:58;;;;;;;;;31.25;23.75;;;;;19.45;52.40;101581.44;5104942;27;47138;-64
2023/10/10 00:11:26;;;;;;;;;36.25;27.00;;;;;19.41;52.64;101585.19;5105634;27;45523;-64
2023/10/10 00:14:04;;;;;;;;;31.25;24.25;;;;;19.42;52.53;101594.84;5104327;27;45665;-64
2023/10/10 00:16:37;;;;;;;;;29.75;24.75;;;;;19.42;52.93;101595.72;5104576;27;45544;-64
2023/10/10 00:19:29;;;;;;;;;30.50;24.25;;;;;19.39;52.64;101593.22;5106781;27;45672;-64
2023/10/10 00:21:55;;;;;;;;;32.00;23.75;;;;;19.38;52.89;101596.81;5106850;27;47677;-64
2023/10/10 00:24:26;;;;;;;;;28.75;22.00;;;;;19.38;52.90;101596.81;5104566;27;45974;-64
2023/10/10 00:26:52;;;;;;;;;28.75;24.25;;;;;19.37;53.11;101597.75;5103831;27;45695;-64
2023/10/10 00:29:21;;;;;;;;;29.25;26.25;;;;;19.34;53.25;101597.91;5108525;27;46209;-65
2023/10/10 00:31:55;;;;;;;;;27.25;22.75;;;;;19.31;53.38;101593.59;5089856;27;46620;-64
2023/10/10 00:34:20;;;;;;;;;25.25;21.50;;;;;19.30;53.00;101594.56;5104281;27;45517;-64
2023/10/10 00:36:48;;;;;;;;;25.25;20.00;;;;;19.30;53.27;101594.56;5103137;27;45540;-64
2023/10/10 00:41:52;;;;;;;;;33.00;27.50;;;;;19.29;53.46;101598.13;5106063;27;45502;-64
2023/10/10 00:44:24;;;;;;;;;24.75;15.50;;;;;19.28;53.72;101595.53;5107421;27;45570;-64
2023/10/10 00:46:54;;;;;;;;;27.25;23.25;;;;;19.28;53.50;101595.53;5105741;27;47009;-64
2023/10/10 00:49:23;;;;;;;;;24.75;23.00;;;;;19.25;53.90;101595.72;5120009;27;46025;-64
2023/10/10 00:51:53;;;;;;;;;32.50;20.75;;;;;19.24;53.42;101594.84;5104929;27;45578;-65
2023/10/10 00:56:54;;;;;;;;;29.00;26.75;;;;;19.21;53.97;101589.72;5102609;27;46851;-64
2023/10/10 00:59:35;;;;;;;;;30.50;24.00;;;;;19.16;54.07;101586.41;5103594;27;47363;-64
2023/10/10 01:02:04;;;;;;;;;32.00;23.00;;;;;19.18;53.92;101589.00;5104569;27;46245;-64
2023/10/10 01:04:35;;;;;;;;;30.25;24.75;;;;;19.16;54.05;101589.91;5106129;27;45510;-64
2023/10/10 01:07:03;;;;;;;;;26.00;25.75;;;;;19.13;53.91;101582.09;5104817;27;45426;-64
2023/10/10 01:09:35;;;;;;;;;27.50;22.25;;;;;19.12;54.13;101579.53;5106154;27;45724;-64
2023/10/10 01:12:04;;;;;;;;;29.25;25.25;;;;;19.09;54.29;101577.03;5102624;27;46081;-63
2023/10/10 01:14:31;;;;;;;;;32.50;22.00;;;;;19.07;54.20;101574.47;5103308;27;45980;-64
2023/10/10 01:16:58;;;;;;;;;28.25;21.50;;;;;19.05;54.71;101568.38;5087805;27;45745;-64
2023/10/10 01:19:29;;;;;;;;;29.00;25.00;;;;;19.07;54.64;101576.22;5106701;27;46595;-64
2023/10/10 01:21:58;;;;;;;;;23.75;20.00;;;;;19.06;54.56;101577.19;5091093;27;45529;-64
2023/10/10 01:24:27;;;;;;;;;32.75;23.50;;;;;19.04;54.65;101571.09;5103877;27;45481;-64
2023/10/10 01:26:53;;;;;;;;;29.00;22.25;;;;;19.00;54.65;101567.75;5109052;27;46090;-64
2023/10/10 01:29:27;;;;;;;;;29.75;21.50;;;;;19.01;54.70;101573.91;5089990;27;47164;-63
2023/10/10 01:31:53;;;;;;;;;28.25;22.25;;;;;19.00;55.22;101564.22;5109455;27;46332;-63
2023/10/10 01:34:32;;;;;;;;;24.50;20.00;;;;;18.99;55.05;101565.16;5108364;27;46077;-63
2023/10/10 01:37:14;;;;;;;;;20.00;17.25;;;;;18.97;55.00;101567.88;5107585;27;45983;-63
2023/10/10 01:40:15;;;;;;;;;26.00;23.25;;;;;18.96;55.21;101567.03;5109469;27;46974;-65
2023/10/10 01:42:59;;;;;;;;;24.00;18.50;;;;;18.91;55.44;101555.78;5106213;27;45496;-64
2023/10/10 01:45:27;;;;;;;;;21.75;19.00;;;;;18.93;55.16;101559.22;5108250;27;46096;-63
2023/10/10 01:48:02;;;;;;;;;25.75;20.75;;;;;18.92;55.55;101565.44;5107680;27;45542;-64
2023/10/10 01:50:30;;;;;;;;;26.75;19.00;;;;;18.90;55.48;101554.06;5108274;27;45650;-63
2023/10/10 01:52:56;;;;;;;;;28.75;21.50;;;;;18.90;55.31;101550.56;5110865;27;46091;-63
2023/10/10 01:55:24;;;;;;;;;27.50;22.00;;;;;18.87;55.47;101551.53;5108594;27;45650;-63
2023/10/10 01:57:53;;;;;;;;;19.50;17.75;;;;;18.87;55.42;101556.00;5124937;27;45512;-63
2023/10/10 02:00:25;;;;;;;;;29.75;24.50;;;;;18.85;55.71;101556.06;5104832;27;46589;-63
2023/10/10 02:02:53;;;;;;;;;27.75;21.00;;;;;18.84;55.75;101549.06;5110083;27;45615;-63
2023/10/10 02:08:09;;;;;;;;;31.75;22.75;;;;;18.82;55.28;101550.06;5109324;27;45557;-62
2023/10/10 02:10:43;;;;;;;;;31.25;23.00;;;;;18.78;55.97;101541.38;5104125;27;45552;-63
2023/10/10 02:13:11;;;;;;;;;28.00;24.50;;;;;18.78;55.48;101544.00;5112358;27;45686;-64
2023/10/10 02:15:39;;;;;;;;;33.50;24.25;;;;;18.76;55.87;101541.44;5104572;27;45472;-66
2023/10/10 02:18:17;;;;;;;;;26.50;22.50;;;;;18.73;55.97;101540.72;5103773;27;45586;-64
2023/10/10 02:25:55;;;;;;;;;28.00;21.75;;;;;18.68;56.04;101537.44;5109142;27;45483;-64
2023/10/10 02:28:21;;;;;;;;;25.50;20.50;;;;;18.66;56.01;101540.19;5106814;27;45592;-63
2023/10/10 02:30:51;;;;;;;;;23.50;19.50;;;;;18.64;55.87;101539.38;5107980;27;47404;-63
2023/10/10 02:33:30;;;;;;;;;23.75;17.00;;;;;18.64;56.04;101541.16;5090474;27;45564;-63
2023/10/10 02:35:56;;;;;;;;;29.25;22.25;;;;;18.60;56.49;101535.16;5109674;27;45496;-63
2023/10/10 02:38:39;;;;;;;;;25.50;24.25;;;;;18.59;56.02;101534.31;5109036;27;45717;-64
2023/10/10 02:46:35;;;;;;;;;24.00;17.75;;;;;18.54;56.33;101530.16;5109062;27;45521;-63
2023/10/10 02:52:14;;;;;;;;;22.25;19.00;;;;;18.48;56.17;101536.59;5048604;28;46514;-63
2023/10/10 02:54:53;;;;;;;;;22.50;19.25;;;;;18.50;56.67;101536.53;5090695;27;47496;-63
2023/10/10 03:00:15;;;;;;;;;22.75;19.25;;;;;18.47;56.50;101534.88;5108209;27;45757;-64
2023/10/10 03:02:42;;;;;;;;;30.50;25.00;;;;;18.46;56.36;101532.31;5107938;27;45685;-63
2023/10/10 03:05:14;;;;;;;;;17.75;16.00;;;;;18.42;56.50;101530.75;5103745;27;46058;-63
2023/10/10 03:07:42;;;;;;;;;26.25;19.25;;;;;18.42;56.94;101536.91;5104674;27;45734;-63
2023/10/10 03:12:38;;;;;;;;;21.50;17.75;;;;;18.38;57.04;101527.38;5107113;27;47188;-64
2023/10/10 03:15:13;;;;;;;;;25.25;19.50;;;;;18.36;56.71;101523.91;5106599;27;45583;-64
2023/10/10 03:17:48;;;;;;;;;27.00;23.75;;;;;18.36;57.13;101526.56;5105514;27;46944;-63
2023/10/10 03:20:39;;;;;;;;;27.00;21.75;;;;;18.36;57.00;101526.56;5110422;27;47076;-64
2023/10/10 03:30:55;;;;;;;;;24.25;17.75;;;;;18.35;57.31;101527.50;5104507;27;45525;-65
2023/10/10 03:33:37;;;;;;;;;18.00;17.25;;;;;18.34;57.24;101529.31;5109295;27;45594;-64
2023/10/10 05:25:22;;;;;;;;;23.50;12.75;;;;;17.75;59.02;101501.94;5110085;27;45471;-64
2023/10/10 05:27:51;;;;;;;;;17.25;13.00;;;;;17.74;59.02;101494.06;5116795;27;45700;-63
2023/10/10 05:30:23;;;;;;;;;18.50;13.00;;;;;17.74;58.89;101494.06;5110800;27;45669;-63
2023/10/10 05:33:01;;;;;;;;;18.00;16.25;;;;;17.71;58.99;101492.44;5115906;27;45456;-63
2023/10/10 05:35:31;;;;;;;;;16.75;12.50;;;;;17.70;59.04;101492.50;5117721;27;47179;-63
2023/10/10 05:37:57;;;;;;;;;19.75;15.50;;;;;17.67;59.39;101482.91;5118529;27;45530;-63
2023/10/10 05:40:25;;;;;;;;;15.50;13.50;;;;;17.68;59.12;101481.97;5120140;27;46473;-64
2023/10/10 05:42:53;;;;;;;;;20.50;13.75;;;;;17.67;59.23;101480.28;5120267;27;46394;-64
2023/10/10 05:45:20;;;;;;;;;16.50;10.25;;;;;17.65;58.75;101484.75;5109944;27;45534;-63
2023/10/10 05:47:46;;;;;;;;;17.75;14.50;;;;;17.65;59.12;101476.81;5113764;27;45495;-65
2023/10/10 05:50:11;;;;;;;;;9.25;7.50;;;;;17.64;59.23;101477.75;5122094;27;45285;-64
2023/10/10 05:52:39;;;;;;;;;18.25;13.00;;;;;17.63;59.07;101483.97;5115985;27;45597;-64
2023/10/10 05:55:10;;;;;;;;;16.75;11.00;;;;;17.63;59.05;101478.66;5119983;27;45867;-63
2023/10/10 05:57:39;;;;;;;;;16.50;14.75;;;;;17.62;59.00;101475.16;5119810;27;45329;-63
2023/10/10 06:00:12;;;;;;;;;16.00;13.25;;;;;17.65;59.27;101479.44;5119592;27;45326;-64
2023/10/10 06:02:38;;;;;;;;;15.00;12.75;;;;;17.65;59.37;101482.09;5119473;27;46182;-64
2023/10/10 06:05:06;;;;;;;;;15.25;12.25;;;;;17.67;59.06;101484.69;5113313;27;45369;-63
2023/10/10 06:07:33;;;;;;;;;14.25;10.50;;;;;17.65;59.43;101493.56;5119902;27;45334;-65
2023/10/10 06:09:58;;;;;;;;;20.00;12.00;;;;;17.64;59.21;101488.34;5116232;27;45595;-64
2023/10/10 06:12:28;;;;;;;;;12.00;12.00;;;;;17.63;59.00;101490.09;5110661;27;45446;-63
2023/10/10 06:14:54;;;;;;;;;15.00;13.50;;;;;17.67;59.03;101488.22;5115323;27;45866;-64
2023/10/10 06:17:21;;;;;;;;;13.75;12.00;;;;;17.65;58.79;101493.56;5121556;27;45293;-65
2023/10/10 06:19:47;;;;;;;;;15.50;13.00;;;;;17.70;59.13;101498.63;5110886;27;45919;-63
2023/10/10 06:22:15;;;;;;;;;17.50;11.75;;;;;17.69;59.02;101491.63;5118447;27;46515;-63
2023/10/10 06:24:41;;;;;;;;;19.50;12.25;;;;;17.73;58.65;101498.50;5109423;27;45418;-62
2023/10/10 06:27:09;;;;;;;;;13.00;12.00;;;;;17.78;58.42;101501.81;5121292;27;45384;-63
2023/10/10 06:29:34;;;;;;;;;19.00;14.25;;;;;17.80;58.56;101497.31;5118276;27;45377;-62
2023/10/10 06:32:00;;;;;;;;;19.75;13.75;;;;;17.79;58.69;101487.63;5113644;27;45567;-64
2023/10/10 06:34:34;;;;;;;;;15.00;10.75;;;;;17.88;58.45;101494.34;5117078;27;45595;-67
2023/10/10 06:37:07;;;;;;;;;19.25;14.00;;;;;17.93;58.43;101497.63;5100462;27;45458;-63
2023/10/10 06:39:33;;;;;;;;;17.50;14.50;;;;;18.00;58.49;101506.16;5110203;27;45364;-63
2023/10/10 06:41:58;;;;;;;;;18.25;14.00;;;;;18.02;58.52;101494.59;5119891;27;45424;-63
2023/10/10 06:44:32;;;;;;;;;83.50;63.00;;;;;18.09;58.42;101502.22;5110962;27;47020;-64
2023/10/10 06:46:59;;;;;;;;;58.00;41.75;;;;;18.14;58.33;101495.78;5116284;27;45483;-63
2023/10/10 06:49:24;;;;;;;;;26.00;24.75;;;;;18.19;58.11;101492.94;5123932;27;45515;-63
2023/10/10 06:51:50;;;;;;;;;19.25;13.75;;;;;18.25;58.20;101494.44;5104938;27;49425;-64
2023/10/10 06:54:27;;;;;;;;;15.00;13.75;;;;;18.28;57.99;101489.84;5128728;27;45329;-64
2023/10/10 06:59:27;;;;;;;;;20.50;18.25;;;;;18.42;57.89;101491.00;5117325;27;45519;-64
2023/10/10 07:01:53;;;;;;;;;19.00;17.75;;;;;18.47;57.80;101487.19;5104213;27;45476;-64
2023/10/10 07:04:19;;;;;;;;;16.00;12.00;;;;;18.51;57.37;101482.59;5071074;27;1163508;-64
2023/10/10 07:06:51;;;;;;;;;19.50;16.75;;;;;18.57;57.00;101490.22;5116210;27;45323;-64
2023/10/10 07:09:29;;;;;;;;;18.50;16.00;;;;;18.61;56.61;101494.47;5118596;27;45579;-64
2023/10/10 07:12:10;;;;;;;;;15.25;13.00;;;;;18.67;56.96;101482.69;5114317;27;46218;-64
2023/10/10 07:14:53;;;;;;;;;20.25;15.50;;;;;18.73;56.38;101496.53;5116689;27;45497;-64
2023/10/10 07:17:21;;;;;;;;;18.50;15.25;;;;;18.77;56.28;101503.38;5112921;27;45542;-64
2023/10/10 07:22:33;;;;;;;;;25.75;13.75;;;;;18.88;56.20;101507.34;5121209;27;46030;-64
2023/10/10 07:25:10;;;;;;;;;18.75;12.75;;;;;18.91;55.87;101493.91;5119837;27;46103;-64
2023/10/10 07:27:36;;;;;;;;;12.25;8.50;;;;;18.95;56.01;101496.34;5101715;27;45233;-63
2023/10/10 07:30:33;;;;;;;;;16.25;14.75;;;;;19.00;56.00;101511.16;5100796;27;45524;-63
2023/10/10 07:32:50;;;;;;;;;19.75;14.00;;;;;19.02;55.38;101504.84;5110329;27;46832;-63
2023/10/10 07:35:16;;;;;;;;;21.00;15.75;;;;;19.06;55.47;101510.88;5111624;27;45592;-64
2023/10/10 07:37:43;;;;;;;;;16.00;15.00;;;;;19.09;55.18;101506.25;5126745;27;46368;-64
2023/10/10 07:40:19;;;;;;;;;18.25;14.00;;;;;19.08;55.47;101506.34;5110418;27;45402;-64
2023/10/10 07:42:51;;;;;;;;;100.75;81.00;;;;;19.13;55.29;101502.50;5125638;27;45617;-63
2023/10/10 07:45:43;;;;;;;;;52.25;39.25;;;;;19.18;55.39;101506.75;5114565;27;45822;-65
2023/10/10 07:50:34;;;;;;;;;32.75;24.75;;;;;19.28;55.32;101516.81;5112609;27;45541;-71
2023/10/10 07:53:05;;;;;;;;;20.50;17.50;;;;;19.36;54.89;101529.69;5092824;27;47018;-70
2023/10/10 07:55:51;;;;;;;;;24.50;20.00;;;;;19.44;54.51;101523.97;5115133;27;45926;-71
2023/10/10 07:58:16;;;;;;;;;20.00;18.75;;;;;19.53;54.58;101524.34;5114578;27;45352;-72
2023/10/10 08:00:44;;;;;;;;;13.75;13.00;;;;;19.62;54.29;101519.47;5131615;27;45602;-70
2023/10/10 08:03:19;;;;;;;;;24.25;17.25;;;;;19.70;54.26;101525.25;5117003;27;46331;-69
2023/10/10 08:05:48;;;;;;;;;16.25;13.75;;;;;19.79;54.47;101530.13;5103742;27;46256;-71
2023/10/10 08:08:17;;;;;;;;;19.25;17.00;;;;;19.85;53.48;101534.25;5098480;27;45506;-73
2023/10/10 08:10:49;;;;;;;;;19.75;13.75;;;;;19.91;53.79;101540.09;5113391;27;45329;-67
2023/10/10 08:13:14;;;;;;;;;14.75;13.00;;;;;19.97;53.30;101538.03;5112055;27;46177;-67
2023/10/10 08:15:56;;;;;;;;;16.50;14.25;;;;;19.98;53.74;101532.66;5117207;27;62894;-67
2023/10/10 08:18:49;;;;;;;;;20.75;16.00;;;;;20.01;53.40;101532.50;5095237;27;45398;-68
2023/10/10 08:21:15;;;;;;;;;21.25;18.00;;;;;20.05;53.04;101530.53;5112952;27;45815;-68
2023/10/10 08:23:46;;;;;;;;;19.75;16.25;;;;;20.05;53.35;101523.41;5122341;27;46053;-70
2023/10/10 08:26:17;;;;;;;;;17.50;15.25;;;;;20.16;52.91;101524.63;5117847;27;45172;-69
2023/10/10 08:28:49;;;;;;;;;18.75;15.25;;;;;20.20;52.86;101524.38;5117248;27;45418;-69
2023/10/10 08:31:16;;;;;;;;;18.25;14.00;;;;;20.23;52.83;101526.00;5093087;27;46369;-71
2023/10/10 08:33:46;;;;;;;;;21.50;17.00;;;;;20.24;52.67;101517.94;5097231;27;47171;-71
2023/10/10 08:36:24;;;;;;;;;21.50;15.25;;;;;20.29;52.69;101517.69;5115466;27;45768;-67
2023/10/10 08:38:56;;;;;;;;;19.75;15.00;;;;;20.30;52.33;101516.75;5128048;27;45503;-65
2023/10/10 08:41:26;;;;;;;;;21.25;18.75;;;;;20.36;52.35;101505.78;5115974;27;45549;-67
2023/10/10 08:43:53;;;;;;;;;23.00;19.50;;;;;20.41;52.58;101513.50;5112867;27;45518;-66
2023/10/10 08:46:22;;;;;;;;;29.00;19.25;;;;;20.42;51.99;101513.41;5119143;27;45846;-67
2023/10/10 08:48:48;;;;;;;;;21.75;18.00;;;;;20.46;52.23;101517.59;5102313;27;45473;-66
2023/10/10 08:51:13;;;;;;;;;19.50;15.50;;;;;20.48;52.30;101513.03;5117455;27;60350;-66
2023/10/10 08:53:39;;;;;;;;;19.75;19.00;;;;;20.52;52.10;101508.41;5105363;27;65194;-66
2023/10/10 08:56:06;;;;;;;;;24.75;19.50;;;;;20.52;51.83;101511.06;5116238;27;58063;-62
2023/10/10 08:58:32;;;;;;;;;24.75;17.75;;;;;20.56;52.13;101520.63;5100412;27;45328;-62
2023/10/10 09:01:00;;;;;;;;;24.00;19.00;;;;;20.59;51.76;101519.56;5099476;27;45478;-63
2023/10/10 09:03:26;;;;;;;;;22.00;15.50;;;;;20.61;52.10;101523.00;5115780;27;46462;-63
2023/10/10 09:05:52;;;;;;;;;21.75;15.00;;;;;20.59;51.92;101517.78;5116478;27;45810;-63
2023/10/10 09:08:18;;;;;;;;;22.75;17.50;;;;;20.61;52.01;101521.25;5118049;27;45310;-63
2023/10/10 09:10:46;;;;;;;;;22.50;17.00;;;;;20.62;51.91;101519.44;5111359;27;45330;-63
2023/10/10 09:13:11;;;;;;;;;25.50;19.00;;;;;20.62;51.85;101509.66;5115920;27;45328;-63
2023/10/10 09:15:37;;;;;;;;;24.00;18.00;;;;;20.64;51.42;101514.88;5118508;27;60963;-64
2023/10/10 09:18:17;;;;;;;;;18.50;16.50;;;;;20.72;51.47;101515.31;5117443;27;45333;-64
2023/10/10 09:20:45;;;;;;;;;20.00;16.00;;;;;20.77;51.83;101518.56;5103387;27;45257;-64
2023/10/10 09:23:27;;;;;;;;;22.75;17.25;;;;;20.85;51.58;101516.31;5116119;27;46138;-64
2023/10/10 09:26:29;;;;;;;;;21.25;16.25;;;;;20.94;51.71;101512.25;5112301;27;45438;-64
2023/10/10 09:29:03;;;;;;;;;19.50;16.25;;;;;21.01;51.18;101504.78;5112613;27;45538;-62
2023/10/10 09:31:31;;;;;;;;;29.50;19.50;;;;;21.05;51.55;101501.84;5113021;27;45429;-63
2023/10/10 09:33:59;;;;;;;;;18.00;17.75;;;;;21.13;51.19;101504.06;5097114;27;46931;-63
2023/10/10 09:36:27;;;;;;;;;25.00;19.75;;;;;21.16;51.01;101503.88;5114719;27;45296;-63
2023/10/10 09:38:54;;;;;;;;;20.25;17.25;;;;;21.20;50.45;101499.22;5120873;27;45462;-63
2023/10/10 09:41:27;;;;;;;;;26.75;17.75;;;;;21.19;50.61;101497.50;5121895;27;45657;-64
2023/10/10 09:49:52;;;;;;;;;27.50;16.50;;;;;21.30;50.60;101508.38;5115438;27;45327;-64
2023/10/10 09:57:58;;;;;;;;;20.50;18.75;;;;;21.49;50.67;101515.28;5120965;27;45275;-64
2023/10/10 10:00:31;;;;;;;;;17.75;17.00;;;;;21.53;50.57;101514.13;5116623;27;45447;-64
2023/10/10 10:02:59;;;;;;;;;20.50;14.25;;;;;21.59;50.58;101511.13;5110829;27;45531;-64
2023/10/10 10:05:28;;;;;;;;;25.25;19.25;;;;;21.64;50.53;101501.03;5123508;27;45431;-64
2023/10/10 10:08:00;;;;;;;;;23.50;17.00;;;;;21.70;50.12;101505.13;5138668;27;45777;-64
2023/10/10 10:10:35;;;;;;;;;21.50;16.75;;;;;21.78;50.16;101510.84;5108209;27;45350;-64
2023/10/10 10:13:13;;;;;;;;;21.75;15.75;;;;;21.87;49.89;101502.28;5103746;27;45339;-64
2023/10/10 10:16:19;;;;;;;;;21.75;16.50;;;;;21.97;49.97;101495.44;5116039;27;46412;-64
2023/10/10 10:18:46;;;;;;;;;22.00;17.75;;;;;22.03;50.07;101488.84;5093331;27;45515;-64
2023/10/10 10:21:30;;;;;;;;;21.75;16.25;;;;;22.19;49.89;101502.06;5112637;27;45379;-64
2023/10/10 10:24:14;;;;;;;;;23.75;16.00;;;;;22.29;49.71;101502.34;5137180;27;45442;-64
2023/10/10 10:26:44;;;;;;;;;18.50;14.50;;;;;22.41;49.65;101498.03;5119130;27;45467;-63
2023/10/10 10:29:26;;;;;;;;;17.25;15.75;;;;;22.56;49.61;101497.88;5103073;27;45757;-63
2023/10/10 10:31:57;;;;;;;;;26.50;16.00;;;;;22.70;49.29;101493.44;5088996;27;45316;-63
2023/10/10 10:34:32;;;;;;;;;17.25;13.00;;;;;22.86;48.94;101495.94;5121835;27;45437;-65
2023/10/10 10:37:13;;;;;;;;;10.50;9.00;;;;;22.99;48.86;101483.50;5104627;27;46926;-63
2023/10/10 10:39:46;;;;;;;;;22.25;18.00;;;;;23.11;48.28;101488.03;5106792;27;45311;-63
2023/10/10 10:42:11;;;;;;;;;19.00;15.75;;;;;23.11;48.46;101480.03;5101896;27;45503;-62
2023/10/10 10:47:34;;;;;;;;;21.25;18.25;;;;;23.22;47.98;101475.78;5102947;27;45449;-63
2023/10/10 10:50:17;;;;;;;;;18.75;14.50;;;;;23.23;48.55;101480.16;5103595;27;45712;-64
2023/10/10 10:52:47;;;;;;;;;51.00;38.25;;;;;23.25;48.80;101479.09;5103153;27;45677;-63
2023/10/10 10:55:22;;;;;;;;;16.75;15.00;;;;;23.28;48.66;101475.34;5111405;27;45464;-63
2023/10/10 10:58:05;;;;;;;;;23.50;14.75;;;;;23.28;48.32;101473.56;5108105;27;45516;-65
2023/10/10 11:00:57;;;;;;;;;15.75;14.00;;;;;23.32;48.30;101476.88;5110154;27;45254;-64
2023/10/10 11:03:36;;;;;;;;;18.75;14.50;;;;;23.33;48.30;101469.69;5116593;27;45296;-64
2023/10/10 11:06:06;;;;;;;;;14.25;10.25;;;;;23.34;48.11;101469.59;5103002;27;45335;-64
2023/10/10 11:14:00;;;;;;;;;24.50;18.75;;;;;23.56;48.10;101460.06;5115939;27;45232;-63
2023/10/10 11:16:39;;;;;;;;;15.50;10.25;;;;;23.62;47.70;101454.28;5106618;27;45516;-63
2023/10/10 11:21:55;;;;;;;;;15.75;12.50;;;;;23.87;47.49;101456.97;5118333;27;45790;-63
2023/10/10 11:24:26;;;;;;;;;21.00;17.25;;;;;24.02;47.24;101454.16;5115668;27;45394;-63
2023/10/10 11:32:29;;;;;;;;;16.75;16.75;;;;;24.48;46.85;101445.41;5106321;27;45226;-66
2023/10/10 11:35:18;;;;;;;;;15.25;11.00;;;;;24.57;46.21;101446.56;5114974;27;45443;-63
2023/10/10 11:37:59;;;;;;;;;18.00;10.75;;;;;24.62;46.14;101434.56;5097401;27;45563;-63
2023/10/10 11:42:57;;;;;;;;;10.00;7.75;;;;;24.79;45.64;101432.44;5111953;27;45924;-63
2023/10/10 11:45:26;;;;;;;;;24.75;20.25;;;;;24.85;45.54;101426.59;5117805;27;45515;-64
2023/10/10 11:47:53;;;;;;;;;10.75;7.00;;;;;24.94;45.47;101422.38;5106241;27;45261;-64
2023/10/10 11:50:27;;;;;;;;;27.00;19.50;;;;;25.00;45.24;101412.03;5111886;27;47203;-64
2023/10/10 11:52:56;;;;;;;;;17.75;16.50;;;;;25.08;45.41;101419.47;5110048;27;45973;-64
2023/10/10 11:55:30;;;;;;;;;17.75;13.00;;;;;25.14;44.64;101412.78;5102505;27;45429;-64
2023/10/10 11:57:58;;;;;;;;;11.00;7.00;;;;;25.19;42.39;101399.88;5095621;27;69371;-64
2023/10/10 12:00:30;;;;;;;;;14.00;9.50;;;;;25.23;42.68;101395.97;5104468;27;45426;-62
2023/10/10 12:02:57;;;;;;;;;7.00;6.25;;;;;25.29;41.21;101400.06;5107281;27;45448;-63
2023/10/10 12:07:58;;;;;;;;;0.25;0.00;;;;;25.34;41.63;101396.03;5118608;27;45394;-63
2023/10/10 12:13:19;;;;;;;;;16.75;9.25;;;;;25.35;41.53;101391.53;5108990;27;45673;-62
2023/10/10 12:15:45;;;;;;;;;13.50;11.75;;;;;25.36;41.26;101383.38;5112519;27;45456;-62
2023/10/10 12:18:10;;;;;;;;;11.00;7.75;;;;;25.36;40.92;101375.31;5089239;27;45366;-64
2023/10/10 12:20:38;;;;;;;;;21.75;12.50;;;;;25.41;40.66;101374.97;5120027;27;45642;-62
2023/10/10 12:23:03;;;;;;;;;11.25;9.75;;;;;25.44;40.40;101376.53;5113429;27;45572;-63
2023/10/10 12:25:28;;;;;;;;;5.00;5.00;;;;;25.47;40.24;101374.47;5092221;27;45430;-62
2023/10/10 12:28:00;;;;;;;;;10.75;8.75;;;;;25.50;39.74;101362.66;5111290;27;45343;-63
2023/10/10 12:30:26;;;;;;;;;11.00;8.50;;;;;25.52;39.67;101364.25;5111722;27;45614;-63
2023/10/10 12:32:51;;;;;;;;;9.25;5.25;;;;;25.54;39.13;101364.13;5104479;27;46467;-63
2023/10/10 12:35:17;;;;;;;;;8.00;7.00;;;;;25.52;39.24;101358.03;5112754;27;64161;-63
2023/10/10 12:37:44;;;;;;;;;7.25;5.00;;;;;25.58;39.47;101355.69;5113361;27;45405;-63
2023/10/10 12:40:11;;;;;;;;;9.75;7.25;;;;;25.62;39.48;101355.44;5107503;27;46486;-63
2023/10/10 12:42:37;;;;;;;;;22.50;18.75;;;;;25.63;39.17;101347.28;5090513;27;45842;-63
2023/10/10 12:45:03;;;;;;;;;13.75;11.50;;;;;25.65;39.67;101342.66;5113053;27;45347;-63
2023/10/10 12:47:31;;;;;;;;;20.75;17.00;;;;;25.67;39.46;101345.19;5098734;27;45310;-63
2023/10/10 12:50:00;;;;;;;;;19.75;15.00;;;;;25.70;38.74;101340.44;5113086;27;45546;-63
2023/10/10 12:52:34;;;;;;;;;15.25;9.75;;;;;25.74;39.43;101339.22;5114923;27;45825;-63
2023/10/10 12:55:00;;;;;;;;;15.25;10.50;;;;;25.75;39.03;101334.72;5111155;27;45310;-63
2023/10/10 12:57:31;;;;;;;;;18.50;9.50;;;;;25.79;38.95;101328.13;5094775;27;45497;-63
2023/10/10 13:00:23;;;;;;;;;8.50;7.50;;;;;25.80;39.06;101327.16;5118084;27;46068;-63
2023/10/10 13:02:42;;;;;;;;;11.50;7.50;;;;;25.85;38.93;101332.13;5107099;27;45225;-63
2023/10/10 13:05:07;;;;;;;;;15.00;6.00;;;;;25.85;38.07;101326.75;5104361;27;64879;-63
2023/10/10 13:07:35;;;;;;;;;9.25;5.25;;;;;25.86;38.40;101323.94;5101455;27;66181;-63
2023/10/10 13:10:10;;;;;;;;;9.75;5.00;;;;;25.87;38.33;101325.66;5106815;27;46579;-63
2023/10/10 13:12:36;;;;;;;;;6.50;6.25;;;;;25.85;38.44;101314.22;5104399;27;45377;-63
2023/10/10 13:15:18;;;;;;;;;8.25;6.00;;;;;25.90;38.11;101321.88;5110488;27;45281;-63
2023/10/10 13:17:53;;;;;;;;;5.00;4.50;;;;;25.92;38.55;101318.09;5119341;27;45263;-63
2023/10/10 13:20:21;;;;;;;;;12.00;6.75;;;;;25.95;38.76;101311.66;5105760;27;47168;-63
2023/10/10 13:22:50;;;;;;;;;8.00;6.25;;;;;25.94;37.08;101313.47;5120671;27;45855;-63
2023/10/10 13:25:16;;;;;;;;;7.25;5.00;;;;;25.95;38.17;101315.16;5109133;27;45297;-63
2023/10/10 13:27:45;;;;;;;;;6.00;4.00;;;;;25.98;38.51;101316.75;5115368;27;45243;-64
2023/10/10 13:30:12;;;;;;;;;7.00;7.00;;;;;26.03;37.93;101308.31;5103011;27;46138;-63
2023/10/10 13:32:38;;;;;;;;;9.25;6.00;;;;;26.02;37.61;101307.47;5113695;27;45348;-63
2023/10/10 13:35:05;;;;;;;;;9.75;6.75;;;;;26.05;38.05;101303.69;5115881;27;45709;-63
2023/10/10 13:37:30;;;;;;;;;5.25;5.00;;;;;26.06;36.60;101302.69;5123623;27;45789;-63
2023/10/10 13:39:56;;;;;;;;;9.25;6.50;;;;;26.07;37.85;101301.72;5107057;27;71115;-63
2023/10/10 13:42:21;;;;;;;;;9.00;8.25;;;;;26.09;37.43;101292.56;5112154;27;62483;-63
2023/10/10 13:44:48;;;;;;;;;5.75;5.75;;;;;26.12;37.61;101296.84;5111400;27;45510;-63
2023/10/10 13:47:16;;;;;;;;;6.25;6.25;;;;;26.15;38.10;101293.88;5109631;27;45287;-64
2023/10/10 13:49:44;;;;;;;;;8.75;7.75;;;;;26.19;38.08;101302.50;5122672;27;46100;-63
2023/10/10 13:52:11;;;;;;;;;7.50;5.75;;;;;26.19;37.22;101289.09;5111936;27;45205;-63
2023/10/10 13:54:37;;;;;;;;;7.50;5.00;;;;;26.19;37.26;101300.69;5109031;27;45449;-63
2023/10/10 13:57:03;;;;;;;;;7.25;6.75;;;;;26.20;37.83;101291.66;5115499;27;45285;-63
2023/10/10 13:59:28;;;;;;;;;6.75;4.50;;;;;26.22;37.03;101300.41;5094575;27;46836;-63
2023/10/10 14:01:54;;;;;;;;;7.00;5.25;;;;;26.24;37.55;101302.97;5116678;27;45484;-63
2023/10/10 14:04:27;;;;;;;;;9.00;5.00;;;;;26.24;37.28;101309.22;5119948;27;45491;-63
2023/10/10 14:06:54;;;;;;;;;7.00;5.00;;;;;26.25;37.18;101302.84;5111660;27;45277;-63
2023/10/10 14:09:24;;;;;;;;;5.00;3.50;;;;;26.28;37.78;101299.06;5111170;27;45997;-63
2023/10/10 14:12:02;;;;;;;;;11.75;6.25;;;;;26.29;37.54;101298.94;5084609;27;45683;-63
2023/10/10 14:14:28;;;;;;;;;6.75;5.50;;;;;26.28;37.25;101293.72;5117998;27;45298;-63
2023/10/10 14:16:53;;;;;;;;;8.25;4.75;;;;;26.27;37.42;101292.00;5102322;27;45284;-63
2023/10/10 14:19:23;;;;;;;;;6.25;5.00;;;;;26.28;37.00;101291.88;5110146;27;67939;-63
2023/10/10 14:21:49;;;;;;;;;8.00;5.75;;;;;26.32;37.19;101289.78;5106285;27;45620;-63
2023/10/10 14:24:14;;;;;;;;;9.50;5.25;;;;;26.31;37.10;101290.75;5102484;27;45411;-63
2023/10/10 14:26:43;;;;;;;;;5.75;5.00;;;;;26.31;37.15;101288.94;5135013;27;45261;-63
2023/10/10 14:29:12;;;;;;;;;8.00;6.00;;;;;26.30;37.10;101287.22;5114688;27;46072;-63
2023/10/10 14:31:44;;;;;;;;;8.00;5.00;;;;;26.31;37.03;101290.75;5100714;27;45766;-63
2023/10/10 14:34:19;;;;;;;;;11.75;8.00;;;;;26.34;36.99;101282.44;5114492;27;45507;-63
2023/10/10 14:36:45;;;;;;;;;7.75;6.00;;;;;26.33;36.97;101281.59;5104981;27;45478;-63